createdAt,value
2023-01-13T00:01:24.362Z,99800.06
2023-01-13T00:03:53.513Z,99794.03
2023-01-13T00:06:26.394Z,99793.06
2023-01-13T00:08:55.748Z,99795.38
2023-01-13T00:11:26.781Z,99804.81
2023-01-13T00:13:55.948Z,99802.13
2023-01-13T00:16:24.753Z,99797.84
2023-01-13T00:18:53.634Z,99798.59
2023-01-13T00:21:24.461Z,99796.84
2023-01-13T00:23:54.351Z,99802.00
2023-01-13T00:26:26.302Z,99807.97
2023-01-13T00:28:59.657Z,99805.59
2023-01-13T00:31:29.217Z,99814.94
2023-01-13T00:33:58.083Z,99803.09
2023-01-13T00:36:27.360Z,99800.53
2023-01-13T00:38:56.815Z,99798.72
2023-01-13T00:41:29.745Z,99799.47
2023-01-13T00:43:57.663Z,99796.19
2023-01-13T00:46:26.451Z,99789.56
2023-01-13T00:48:55.419Z,99794.72
2023-01-13T00:51:24.212Z,99787.13
2023-01-13T00:53:53.799Z,99792.09
2023-01-13T00:56:39.077Z,99792.22
2023-01-13T00:59:15.095Z,99792.28
2023-01-13T01:01:44.054Z,99794.84
2023-01-13T01:04:13.043Z,99793.19
2023-01-13T01:06:42.401Z,99800.75
2023-01-13T01:09:15.535Z,99795.69
2023-01-13T01:11:45.448Z,99800.75
2023-01-13T01:14:16.029Z,99790.56
2023-01-13T01:16:44.886Z,99793.25
2023-01-13T01:19:13.749Z,99794.13
2023-01-13T01:21:42.655Z,99784.88
2023-01-13T01:24:11.560Z,99779.84
2023-01-13T01:26:42.272Z,99775.59
2023-01-13T01:29:16.222Z,99760.31
2023-01-13T01:31:45.333Z,99755.16
2023-01-13T01:34:14.227Z,99758.56
2023-01-13T01:36:43.272Z,99752.72
2023-01-13T01:39:12.382Z,99756.94
2023-01-13T01:42:01.811Z,99760.28
2023-01-13T01:44:51.503Z,99758.56
2023-01-13T01:47:23.230Z,99758.53
2023-01-13T01:49:52.450Z,99742.50
2023-01-13T01:52:26.545Z,99748.47
2023-01-13T01:55:01.167Z,99751.94
2023-01-13T01:57:34.933Z,99760.41
2023-01-13T02:00:04.201Z,99745.25
2023-01-13T02:02:45.270Z,99746.09
2023-01-13T02:05:14.320Z,99740.09
2023-01-13T02:07:46.224Z,99746.09
2023-01-13T02:10:20.483Z,99736.78
2023-01-13T02:12:52.231Z,99734.22
2023-01-13T02:15:24.430Z,99726.66
2023-01-13T02:18:20.162Z,99718.28
2023-01-13T02:21:12.500Z,99714.00
2023-01-13T02:24:22.963Z,99708.88
2023-01-13T02:27:23.276Z,99701.19
2023-01-13T02:30:25.819Z,99694.41
2023-01-13T02:33:15.560Z,99694.38
2023-01-13T02:35:49.272Z,99701.16
2023-01-13T02:38:25.053Z,99697.78
2023-01-13T02:40:59.809Z,99701.09
2023-01-13T02:43:54.177Z,99695.19
2023-01-13T02:46:29.609Z,99691.00
2023-01-13T02:49:04.228Z,99692.66
2023-01-13T02:51:35.510Z,99680.69
2023-01-13T02:54:08.813Z,99687.47
2023-01-13T02:56:43.139Z,99677.19
2023-01-13T02:59:14.027Z,99678.91
2023-01-13T03:01:44.362Z,99684.09
2023-01-13T03:04:14.518Z,99684.09
2023-01-13T03:06:55.274Z,99678.84
2023-01-13T03:09:30.889Z,99681.28
2023-01-13T03:12:11.556Z,99675.28
2023-01-13T03:14:49.530Z,99675.34
2023-01-13T03:17:28.602Z,99672.72
2023-01-13T03:20:05.992Z,99676.06
2023-01-13T03:22:39.141Z,99678.69
2023-01-13T03:25:14.639Z,99672.81
2023-01-13T03:27:50.455Z,99680.28
2023-01-13T03:30:24.773Z,99671.78
2023-01-13T03:33:01.089Z,99670.16
2023-01-13T03:35:34.213Z,99676.03
2023-01-13T03:38:08.763Z,99681.97
2023-01-13T03:40:43.398Z,99686.25
2023-01-13T03:43:27.821Z,99684.59
2023-01-13T03:46:01.853Z,99682.13
2023-01-13T03:48:37.566Z,99682.16
2023-01-13T03:51:09.587Z,99675.44
2023-01-13T03:53:41.682Z,99669.44
2023-01-13T03:56:17.049Z,99683.91
2023-01-13T03:58:50.691Z,99688.94
2023-01-13T04:01:24.290Z,99690.63
2023-01-13T04:04:01.666Z,99686.44
2023-01-13T04:06:39.575Z,99687.38
2023-01-13T04:09:16.052Z,99684.03
2023-01-13T04:11:49.574Z,99687.47
2023-01-13T04:14:22.289Z,99690.03
2023-01-13T04:16:51.213Z,99690.09
2023-01-13T04:19:21.439Z,99696.75
2023-01-13T04:21:50.318Z,99690.00
2023-01-13T04:24:19.068Z,99691.66
2023-01-13T04:26:47.886Z,99692.47
2023-01-13T04:29:16.453Z,99697.50
2023-01-13T04:31:45.528Z,99696.56
2023-01-13T04:34:14.683Z,99700.75
2023-01-13T04:36:45.230Z,99687.22
2023-01-13T04:39:13.917Z,99693.16
2023-01-13T04:41:52.945Z,99693.16
2023-01-13T04:44:21.826Z,99701.56
2023-01-13T04:46:50.642Z,99694.69
2023-01-13T04:49:19.617Z,99697.22
2023-01-13T04:51:49.903Z,99693.03
2023-01-13T04:54:18.775Z,99693.84
2023-01-13T04:56:47.580Z,99686.06
2023-01-13T04:59:16.494Z,99694.38
2023-01-13T05:01:45.394Z,99692.66
2023-01-13T05:04:15.716Z,99696.13
2023-01-13T05:06:44.713Z,99685.94
2023-01-13T05:09:15.928Z,99694.47
2023-01-13T05:11:54.411Z,99693.56
2023-01-13T05:14:33.013Z,99695.94
2023-01-13T05:17:02.349Z,99694.09
2023-01-13T05:19:33.459Z,99695.75
2023-01-13T05:22:12.876Z,99694.97
2023-01-13T05:24:53.203Z,99696.69
2023-01-13T05:27:21.974Z,99698.38
2023-01-13T05:29:50.605Z,99688.28
2023-01-13T05:32:19.473Z,99699.16
2023-01-13T05:34:48.299Z,99694.84
2023-01-13T05:37:17.550Z,99703.31
2023-01-13T05:39:57.655Z,99701.66
2023-01-13T05:42:36.348Z,99704.94
2023-01-13T05:45:06.311Z,99706.50
2023-01-13T05:47:35.022Z,99709.03
2023-01-13T05:50:05.631Z,99709.06
2023-01-13T05:52:34.077Z,99709.06
2023-01-13T05:55:04.202Z,99703.19
2023-01-13T05:57:33.007Z,99708.28
2023-01-13T06:00:02.131Z,99700.69
2023-01-13T06:02:40.653Z,99692.97
2023-01-13T06:05:10.335Z,99692.91
2023-01-13T06:07:38.860Z,99697.13
2023-01-13T06:10:10.955Z,99693.75
2023-01-13T06:12:39.803Z,99694.59
2023-01-13T06:15:09.346Z,99686.19
2023-01-13T06:17:38.579Z,99682.94
2023-01-13T06:20:09.362Z,99689.72
2023-01-13T06:22:40.319Z,99688.06
2023-01-13T06:25:17.466Z,99688.00
2023-01-13T06:27:47.217Z,99691.19
2023-01-13T06:30:16.295Z,99693.69
2023-01-13T06:32:47.587Z,99698.72
2023-01-13T06:35:20.816Z,99683.56
2023-01-13T06:37:54.264Z,99687.09
2023-01-13T06:40:25.265Z,99684.56
2023-01-13T06:43:05.765Z,99692.25
2023-01-13T06:45:34.612Z,99694.91
2023-01-13T06:48:03.363Z,99685.75
2023-01-13T06:50:32.257Z,99698.38
2023-01-13T06:53:00.920Z,99705.16
2023-01-13T06:55:31.146Z,99710.31
2023-01-13T06:58:00.120Z,99709.53
2023-01-13T07:00:29.099Z,99713.75
2023-01-13T07:03:10.378Z,99702.00
2023-01-13T07:05:39.735Z,99703.81
2023-01-13T07:08:10.172Z,99704.69
2023-01-13T07:10:40.459Z,99702.09
2023-01-13T07:13:18.977Z,99708.72
2023-01-13T07:15:59.148Z,99704.53
2023-01-13T07:18:31.999Z,99691.88
2023-01-13T07:21:03.400Z,99709.69
2023-01-13T07:23:35.471Z,99702.25
2023-01-13T07:26:07.438Z,99708.31
2023-01-13T07:28:36.668Z,99692.28
2023-01-13T07:31:05.786Z,99703.47
2023-01-13T07:33:34.587Z,99705.19
2023-01-13T07:36:06.271Z,99692.66
2023-01-13T07:38:35.713Z,99692.72
2023-01-13T07:41:19.718Z,99702.75
2023-01-13T07:43:48.537Z,99694.13
2023-01-13T07:46:17.570Z,99692.47
2023-01-13T07:48:48.235Z,99699.25
2023-01-13T07:51:17.234Z,99705.19
2023-01-13T07:53:45.956Z,99701.00
2023-01-13T07:56:16.415Z,99711.22
2023-01-13T07:58:50.509Z,99709.56
2023-01-13T08:01:20.599Z,99711.22
2023-01-13T08:03:49.294Z,99714.72
2023-01-13T08:06:18.173Z,99709.72
2023-01-13T08:08:46.827Z,99718.19
2023-01-13T08:11:17.033Z,99717.44
2023-01-13T08:13:46.037Z,99714.91
2023-01-13T08:16:17.134Z,99707.38
2023-01-13T08:18:45.926Z,99716.75
2023-01-13T08:21:15.760Z,99714.31
2023-01-13T08:23:46.786Z,99718.66
2023-01-13T08:26:18.657Z,99725.44
2023-01-13T08:28:49.423Z,99717.03
2023-01-13T08:31:20.366Z,99716.22
2023-01-13T08:33:49.484Z,99713.81
2023-01-13T08:36:18.748Z,99719.00
2023-01-13T08:38:47.969Z,99720.78
2023-01-13T08:41:39.116Z,99718.31
2023-01-13T08:44:09.385Z,99714.22
2023-01-13T08:46:38.728Z,99724.44
2023-01-13T08:49:07.878Z,99719.50
2023-01-13T08:51:36.488Z,99728.88
2023-01-13T08:54:05.869Z,99729.81
2023-01-13T08:56:36.042Z,99716.53
2023-01-13T08:59:04.874Z,99732.56
2023-01-13T09:01:34.380Z,99732.63
2023-01-13T09:04:03.083Z,99730.06
2023-01-13T09:06:31.837Z,99731.78
2023-01-13T09:09:02.551Z,99733.47
2023-01-13T09:11:44.317Z,99731.81
2023-01-13T09:14:17.918Z,99731.00
2023-01-13T09:16:46.716Z,99725.25
2023-01-13T09:19:15.659Z,99727.06
2023-01-13T09:21:44.445Z,99730.56
2023-01-13T09:24:13.421Z,99724.78
2023-01-13T09:26:42.348Z,99729.03
2023-01-13T09:29:11.007Z,99729.91
2023-01-13T09:31:43.928Z,99724.78
2023-01-13T09:34:35.873Z,99718.06
2023-01-13T09:37:05.235Z,99709.66
2023-01-13T09:39:34.452Z,99712.28
2023-01-13T09:42:16.242Z,99709.03
2023-01-13T09:44:52.995Z,99693.97
2023-01-13T09:47:26.975Z,99693.31
2023-01-13T09:50:00.803Z,99683.28
2023-01-13T09:52:30.063Z,99689.38
2023-01-13T09:55:06.551Z,99686.91
2023-01-13T09:57:40.199Z,99682.75
2023-01-13T10:00:15.115Z,99676.00
2023-01-13T10:03:02.170Z,99672.66
2023-01-13T10:05:37.886Z,99677.72
2023-01-13T10:08:13.551Z,99667.59
2023-01-13T10:10:47.010Z,99666.66
2023-01-13T10:13:21.840Z,99659.84
2023-01-13T10:16:21.579Z,99658.19
2023-01-13T10:19:05.067Z,99665.00
2023-01-13T10:22:07.861Z,99655.72
2023-01-13T10:25:06.854Z,99654.94
2023-01-13T10:27:37.295Z,99668.50
2023-01-13T10:30:21.270Z,99663.47
2023-01-13T10:32:55.720Z,99660.91
2023-01-13T10:35:46.265Z,99676.19
2023-01-13T10:38:21.226Z,99664.31
2023-01-13T10:40:51.216Z,99671.16
2023-01-13T10:43:20.016Z,99652.63
2023-01-13T10:46:01.661Z,99645.81
2023-01-13T10:48:39.893Z,99646.63
2023-01-13T10:51:19.417Z,99645.81
2023-01-13T10:53:53.977Z,99643.28
2023-01-13T10:56:24.744Z,99640.75
2023-01-13T10:58:53.540Z,99644.13
2023-01-13T11:01:30.853Z,99649.25
2023-01-13T11:03:59.528Z,99640.00
2023-01-13T11:06:31.189Z,99638.31
2023-01-13T11:09:03.344Z,99640.81
2023-01-13T11:11:44.617Z,99640.75
2023-01-13T11:14:31.659Z,99633.13
2023-01-13T11:17:05.552Z,99628.88
2023-01-13T11:19:38.021Z,99637.41
2023-01-13T11:22:13.530Z,99634.97
2023-01-13T11:24:49.494Z,99632.44
2023-01-13T11:27:26.019Z,99634.22
2023-01-13T11:30:02.885Z,99630.81
2023-01-13T11:32:37.010Z,99630.88
2023-01-13T11:35:16.330Z,99623.28
2023-01-13T11:37:50.639Z,99613.16
2023-01-13T11:40:37.791Z,99611.53
2023-01-13T11:43:19.522Z,99620.06
2023-01-13T11:45:53.730Z,99632.00
2023-01-13T11:48:27.133Z,99631.13
2023-01-13T11:51:03.769Z,99620.91
2023-01-13T11:53:52.909Z,99620.91
2023-01-13T11:56:37.356Z,99616.56
2023-01-13T11:59:34.135Z,99612.25
2023-01-13T12:02:15.109Z,99590.19
2023-01-13T12:04:55.004Z,99585.06
2023-01-13T12:07:37.972Z,99596.03
2023-01-13T12:10:13.920Z,99590.94
2023-01-13T12:12:52.758Z,99585.00
2023-01-13T12:15:45.887Z,99580.69
2023-01-13T12:18:34.118Z,99583.19
2023-01-13T12:21:20.896Z,99567.97
2023-01-13T12:24:10.955Z,99569.69
2023-01-13T12:26:44.032Z,99543.47
2023-01-13T12:29:19.102Z,99531.69
2023-01-13T12:31:50.645Z,99535.97
2023-01-13T12:34:34.382Z,99526.69
2023-01-13T12:37:15.610Z,99544.47
2023-01-13T12:39:54.045Z,99544.47
2023-01-13T12:42:38.988Z,99542.84
2023-01-13T12:45:27.314Z,99531.91
2023-01-13T12:47:56.416Z,99531.16
2023-01-13T12:50:46.680Z,99522.97
2023-01-13T12:53:31.579Z,99521.53
2023-01-13T12:56:20.265Z,99528.53
2023-01-13T12:58:49.083Z,99528.50
2023-01-13T13:01:19.719Z,99538.59
2023-01-13T13:04:10.870Z,99541.94
2023-01-13T13:06:44.048Z,99531.59
2023-01-13T13:09:25.219Z,99549.28
2023-01-13T13:12:03.652Z,99534.09
2023-01-13T13:14:54.089Z,99537.53
2023-01-13T13:18:02.505Z,99550.22
2023-01-13T13:20:54.249Z,99546.75
2023-01-13T13:23:49.614Z,99556.00
2023-01-13T13:26:31.455Z,99548.38
2023-01-13T13:29:20.775Z,99542.53
2023-01-13T13:32:14.497Z,99553.50
2023-01-13T13:34:53.022Z,99548.50
2023-01-13T13:37:58.748Z,99566.28
2023-01-13T13:40:38.579Z,99567.09
2023-01-13T13:43:24.583Z,99569.53
2023-01-13T13:46:03.819Z,99570.28
2023-01-13T13:48:32.636Z,99568.59
2023-01-13T13:51:06.345Z,99570.28
2023-01-13T13:53:37.754Z,99566.88
2023-01-13T13:56:18.253Z,99563.38
2023-01-13T13:58:49.984Z,99578.56
2023-01-13T14:01:25.710Z,99578.59
2023-01-13T14:04:06.675Z,99574.41
2023-01-13T14:06:36.980Z,99574.41
2023-01-13T14:09:05.991Z,99576.06
2023-01-13T14:11:36.267Z,99593.00
2023-01-13T14:14:07.528Z,99590.44
2023-01-13T14:16:38.904Z,99598.88
2023-01-13T14:19:08.631Z,99607.34
2023-01-13T14:21:39.918Z,99609.06
2023-01-13T14:24:16.696Z,99607.34
2023-01-13T14:26:51.818Z,99603.06
2023-01-13T14:29:24.255Z,99602.09
2023-01-13T14:31:55.161Z,99602.13
2023-01-13T14:34:31.355Z,99608.03
2023-01-13T14:37:04.094Z,99611.41
2023-01-13T14:39:38.970Z,99616.47
2023-01-13T14:42:15.146Z,99613.06
2023-01-13T14:44:47.594Z,99621.44
2023-01-13T14:47:23.840Z,99621.38
2023-01-13T14:50:03.323Z,99633.19
2023-01-13T14:52:36.762Z,99634.84
2023-01-13T14:55:28.471Z,99632.31
2023-01-13T14:58:18.616Z,99629.75
2023-01-13T15:00:47.580Z,99626.34
2023-01-13T15:03:17.857Z,99632.28
2023-01-13T15:05:49.630Z,99647.50
2023-01-13T15:08:40.334Z,99639.81
2023-01-13T15:11:20.515Z,99645.69
2023-01-13T15:13:55.148Z,99651.59
2023-01-13T15:16:26.165Z,99646.38
2023-01-13T15:18:55.881Z,99645.41
2023-01-13T15:21:25.217Z,99647.13
2023-01-13T15:23:55.865Z,99653.00
2023-01-13T15:26:27.062Z,99646.88
2023-01-13T15:28:57.663Z,99643.47
2023-01-13T15:31:27.506Z,99649.41
2023-01-13T15:33:56.571Z,99648.56
2023-01-13T15:36:28.989Z,99655.34
2023-01-13T15:39:00.926Z,99635.81
2023-01-13T15:41:39.735Z,99645.22
2023-01-13T15:44:18.603Z,99648.53
2023-01-13T15:46:47.419Z,99649.34
2023-01-13T15:49:24.761Z,99651.94
2023-01-13T15:51:53.840Z,99648.56
2023-01-13T15:54:24.949Z,99655.34
2023-01-13T15:56:54.882Z,99653.59
2023-01-13T15:59:27.881Z,99659.44
2023-01-13T16:01:56.779Z,99666.22
2023-01-13T16:04:25.529Z,99667.09
2023-01-13T16:06:55.749Z,99672.16
2023-01-13T16:09:25.967Z,99673.84
2023-01-13T16:11:54.748Z,99682.28
2023-01-13T16:14:23.430Z,99686.56
2023-01-13T16:16:52.391Z,99685.75
2023-01-13T16:19:21.098Z,99680.69
2023-01-13T16:21:49.912Z,99678.94
2023-01-13T16:24:18.635Z,99682.28
2023-01-13T16:26:48.911Z,99677.16
2023-01-13T16:29:18.803Z,99680.50
2023-01-13T16:31:47.661Z,99678.75
2023-01-13T16:34:16.254Z,99692.28
2023-01-13T16:36:46.512Z,99685.50
2023-01-13T16:39:22.366Z,99680.44
2023-01-13T16:41:52.978Z,99675.38
2023-01-13T16:44:21.762Z,99660.13
2023-01-13T16:46:50.601Z,99663.53
2023-01-13T16:49:19.580Z,99652.53
2023-01-13T16:51:48.241Z,99664.19
2023-01-13T16:54:17.084Z,99675.97
2023-01-13T16:56:45.796Z,99663.28
2023-01-13T16:59:17.155Z,99647.28
2023-01-13T17:01:46.360Z,99629.69
2023-01-13T17:04:17.927Z,99644.94
2023-01-13T17:06:55.798Z,99648.34
2023-01-13T17:09:27.034Z,99638.22
2023-01-13T17:11:55.774Z,99629.81
2023-01-13T17:14:26.387Z,99636.53
2023-01-13T17:16:59.959Z,99641.56
2023-01-13T17:19:28.893Z,99655.06
2023-01-13T17:21:58.217Z,99656.69
2023-01-13T17:24:29.054Z,99657.50
2023-01-13T17:26:58.024Z,99653.19
2023-01-13T17:29:28.129Z,99663.28
2023-01-13T17:31:56.943Z,99662.41
2023-01-13T17:34:25.739Z,99664.94
2023-01-13T17:36:54.557Z,99659.75
2023-01-13T17:39:24.959Z,99663.06
2023-01-13T17:41:56.727Z,99664.75
2023-01-13T17:44:25.523Z,99670.66
2023-01-13T17:46:55.539Z,99676.53
2023-01-13T17:49:24.785Z,99682.44
2023-01-13T17:51:53.423Z,99684.97
2023-01-13T17:54:22.785Z,99695.09
2023-01-13T17:56:51.701Z,99703.53
2023-01-13T17:59:22.592Z,99699.22
2023-01-13T18:01:51.918Z,99705.16
2023-01-13T18:04:24.875Z,99702.59
2023-01-13T18:06:53.688Z,99703.38
2023-01-13T18:09:23.667Z,99723.66
2023-01-13T18:11:52.449Z,99720.25
2023-01-13T18:14:22.855Z,99735.38
2023-01-13T18:16:52.979Z,99733.63
2023-01-13T18:19:33.529Z,99737.03
2023-01-13T18:22:12.428Z,99738.72
2023-01-13T18:24:51.017Z,99733.59
2023-01-13T18:27:23.867Z,99731.09
2023-01-13T18:29:54.697Z,99729.38
2023-01-13T18:32:26.565Z,99731.88
2023-01-13T18:35:05.277Z,99736.84
2023-01-13T18:37:38.957Z,99746.97
2023-01-13T18:40:10.621Z,99746.97
2023-01-13T18:42:50.363Z,99760.44
2023-01-13T18:45:19.712Z,99757.03
2023-01-13T18:47:48.478Z,99751.91
2023-01-13T18:50:19.012Z,99733.28
2023-01-13T18:52:47.938Z,99727.38
2023-01-13T18:55:16.959Z,99728.25
2023-01-13T18:57:45.768Z,99699.56
2023-01-13T19:00:17.978Z,99704.63
2023-01-13T19:02:48.684Z,99699.56
2023-01-13T19:05:19.204Z,99697.94
2023-01-13T19:07:51.414Z,99717.31
2023-01-13T19:10:20.893Z,99722.31
2023-01-13T19:12:49.562Z,99718.88
2023-01-13T19:15:18.418Z,99723.03
2023-01-13T19:17:47.346Z,99722.16
2023-01-13T19:20:16.365Z,99729.72
2023-01-13T19:22:54.435Z,99722.94
2023-01-13T19:25:23.335Z,99715.97
2023-01-13T19:27:52.051Z,99710.03
2023-01-13T19:30:21.148Z,99715.00
2023-01-13T19:32:52.090Z,99715.84
2023-01-13T19:35:21.067Z,99724.25
2023-01-13T19:37:51.349Z,99729.31
2023-01-13T19:40:20.282Z,99717.53
2023-01-13T19:42:58.861Z,99723.53
2023-01-13T19:45:28.259Z,99732.78
2023-01-13T19:47:57.861Z,99732.00
2023-01-13T19:50:26.461Z,99739.59
2023-01-13T19:52:56.600Z,99731.16
2023-01-13T19:55:25.593Z,99726.09
2023-01-13T19:57:54.623Z,99739.63
2023-01-13T20:00:23.949Z,99759.03
2023-01-13T20:02:53.473Z,99754.81
2023-01-13T20:05:26.127Z,99763.22
2023-01-13T20:07:56.584Z,99786.97
2023-01-13T20:10:25.712Z,99802.06
2023-01-13T20:12:54.437Z,99850.19
2023-01-13T20:15:24.667Z,99873.78
2023-01-13T20:17:53.509Z,99878.88
2023-01-13T20:20:22.369Z,99879.69
2023-01-13T20:22:51.201Z,99876.34
2023-01-13T20:25:21.621Z,99866.13
2023-01-13T20:27:50.381Z,99872.94
2023-01-13T20:30:19.138Z,99865.34
2023-01-13T20:32:47.962Z,99872.94
2023-01-13T20:35:17.256Z,99861.09
2023-01-13T20:37:46.028Z,99858.56
2023-01-13T20:40:18.755Z,99869.50
2023-01-13T20:42:48.679Z,99877.03
2023-01-13T20:45:20.973Z,99880.34
2023-01-13T20:47:49.761Z,99877.69
2023-01-13T20:50:18.695Z,99881.00
2023-01-13T20:52:48.255Z,99864.88
2023-01-13T20:55:17.128Z,99854.56
2023-01-13T20:57:49.037Z,99863.78
2023-01-13T21:00:20.678Z,99865.53
2023-01-13T21:02:49.640Z,99863.88
2023-01-13T21:05:18.600Z,99858.72
2023-01-13T21:07:47.728Z,99869.75
2023-01-13T21:10:16.924Z,99870.63
2023-01-13T21:12:55.923Z,99866.44
2023-01-13T21:15:27.566Z,99859.53
2023-01-13T21:18:06.196Z,99869.91
2023-01-13T21:20:36.222Z,99873.28
2023-01-13T21:23:05.994Z,99876.72
2023-01-13T21:25:36.554Z,99886.84
2023-01-13T21:28:07.990Z,99893.53
2023-01-13T21:30:39.360Z,99875.84
2023-01-13T21:33:08.972Z,99875.00
2023-01-13T21:35:40.096Z,99886.75
2023-01-13T21:38:08.882Z,99889.31
2023-01-13T21:40:37.965Z,99889.38
2023-01-13T21:43:16.779Z,99892.81
2023-01-13T21:45:56.960Z,99893.63
2023-01-13T21:48:26.356Z,99894.53
2023-01-13T21:50:55.026Z,99891.16
2023-01-13T21:53:23.883Z,99897.94
2023-01-13T21:55:53.278Z,99894.59
2023-01-13T21:58:22.115Z,99887.78
2023-01-13T22:00:52.400Z,99881.81
2023-01-13T22:03:21.152Z,99881.88
2023-01-13T22:05:55.089Z,99879.34
2023-01-13T22:08:24.003Z,99881.88
2023-01-13T22:10:58.249Z,99878.47
2023-01-13T22:13:36.977Z,99878.47
2023-01-13T22:16:09.689Z,99889.38
2023-01-13T22:18:38.603Z,99887.66
2023-01-13T22:21:07.700Z,99880.03
2023-01-13T22:23:36.876Z,99874.09
2023-01-13T22:26:07.713Z,99869.81
2023-01-13T22:28:41.001Z,99879.91
2023-01-13T22:31:12.422Z,99877.25
2023-01-13T22:33:41.755Z,99872.06
2023-01-13T22:36:11.886Z,99873.78
2023-01-13T22:38:41.022Z,99865.28
2023-01-13T22:41:11.193Z,99864.34
2023-01-13T22:43:40.864Z,99865.94
2023-01-13T22:46:13.231Z,99876.00
2023-01-13T22:48:42.482Z,99873.22
2023-01-13T22:51:13.743Z,99866.31
2023-01-13T22:53:43.915Z,99875.38
2023-01-13T22:56:17.805Z,99872.66
2023-01-13T22:58:46.969Z,99874.22
2023-01-13T23:01:18.928Z,99874.97
2023-01-13T23:03:49.517Z,99879.13
2023-01-13T23:06:19.641Z,99877.41
2023-01-13T23:08:48.986Z,99883.34
2023-01-13T23:11:20.651Z,99888.91
2023-01-13T23:13:49.507Z,99891.31
2023-01-13T23:16:22.384Z,99896.31
2023-01-13T23:18:51.503Z,99887.13
2023-01-13T23:21:23.220Z,99887.97
2023-01-13T23:23:52.419Z,99881.09
2023-01-13T23:26:22.013Z,99886.94
2023-01-13T23:28:51.434Z,99884.25
2023-01-13T23:31:23.641Z,99887.59
2023-01-13T23:33:52.632Z,99888.34
2023-01-13T23:36:23.772Z,99891.75
2023-01-13T23:38:53.203Z,99891.63
2023-01-13T23:41:25.006Z,99894.03
2023-01-13T23:43:54.492Z,99888.16
2023-01-13T23:46:26.069Z,99888.00
2023-01-13T23:48:56.000Z,99889.78
2023-01-13T23:51:26.490Z,99890.53
2023-01-13T23:53:55.783Z,99896.56
2023-01-13T23:56:26.734Z,99893.19
2023-01-13T23:58:56.105Z,99895.78
